Time;durP1;ratioP1;P1;durP2;ratioP2;P2;SDS_P1;SDS_P2;PMS_P1;PMS_P2;Temp;Humidity;BMP_temperature;BMP_pressure;BME280_temperature;BME280_humidity;BME280_pressure;Samples;Min_cycle;Max_cycle;Signal;HPM_P1;HPM_P2
2022/04/30 00:01:45;;;;;;;10.57;9.47;;;11.60;1.00;;;11.65;55.73;101872.53;4956499;28;20444;-63
2022/04/30 00:04:14;;;;;;;13.27;10.37;;;11.60;1.00;;;11.43;56.42;101879.69;4956296;28;20507;-65
2022/04/30 00:06:44;;;;;;;11.43;10.20;;;11.50;20.80;;;11.34;56.91;101875.38;4956388;28;20523;-64
2022/04/30 00:09:12;;;;;;;10.53;9.17;;;11.50;19.30;;;11.27;57.18;101869.00;4956724;29;20975;-63
2022/04/30 00:11:41;;;;;;;9.93;8.50;;;11.40;1.00;;;11.19;57.49;101871.78;4956338;28;20443;-65
2022/04/30 00:14:10;;;;;;;17.83;9.03;;;11.30;12.10;;;11.07;57.83;101873.25;4956295;28;20412;-65
2022/04/30 00:16:38;;;;;;;10.73;9.13;;;11.20;1.00;;;11.02;58.00;101875.66;4956429;29;20420;-65
2022/04/30 00:19:10;;;;;;;11.90;9.50;;;11.10;7.00;;;11.04;57.44;101879.84;4956678;28;20538;-65
2022/04/30 00:21:38;;;;;;;10.10;8.50;;;11.10;17.30;;;10.96;57.31;101876.38;4957115;28;20451;-65
2022/04/30 00:24:08;;;;;;;8.73;7.73;;;11.00;15.50;;;10.83;57.41;101872.41;4956359;28;20431;-65
2022/04/30 00:26:37;;;;;;;11.83;8.33;;;10.90;1.00;;;10.83;57.73;101863.44;4956151;28;21002;-64
2022/04/30 00:29:05;;;;;;;13.23;9.07;;;10.90;1.00;;;10.61;58.33;101873.22;4954812;28;20824;-65
2022/04/30 00:31:34;;;;;;;8.40;7.60;;;10.70;9.20;;;10.62;58.46;101874.06;4956005;28;20452;-65
2022/04/30 00:34:04;;;;;;;8.13;7.37;;;10.70;8.20;;;10.73;58.06;101870.94;4956466;28;20423;-65
2022/04/30 00:36:34;;;;;;;9.73;8.60;;;10.70;1.00;;;10.64;58.21;101867.47;4956746;29;20483;-65
2022/04/30 00:39:05;;;;;;;10.57;7.83;;;10.70;1.00;;;10.52;58.39;101868.88;4956733;28;20859;-64
2022/04/30 00:41:36;;;;;;;7.30;6.47;;;10.60;1.00;;;10.50;58.43;101862.81;4955982;28;20934;-63
2022/04/30 00:44:05;;;;;;;9.25;7.07;;;10.60;1.00;;;10.48;58.40;101867.56;4956130;28;20426;-65
2022/04/30 00:46:33;;;;;;;9.07;7.03;;;10.60;1.00;;;10.59;57.92;101859.03;4956236;29;20219;-64
2022/04/30 00:49:02;;;;;;;11.65;7.07;;;10.60;1.00;;;10.36;58.56;101869.00;4955940;28;20408;-65
2022/04/30 00:51:36;;;;;;;15.23;8.10;;;10.50;1.00;;;10.26;58.97;101865.66;4955847;28;20187;-64
2022/04/30 00:54:07;;;;;;;12.87;9.03;;;10.40;1.00;;;10.25;59.07;101866.66;4955676;29;20181;-64
2022/04/30 00:56:43;;;;;;;7.43;6.10;;;10.30;1.00;;;10.18;59.02;101862.97;4955987;29;20884;-64
2022/04/30 00:59:18;;;;;;;22.80;15.52;;;10.30;8.30;;;10.07;59.30;101864.16;4955688;29;20633;-65
2022/04/30 01:01:48;;;;;;;19.42;13.85;;;10.20;2.80;;;10.07;59.19;101860.63;4955367;28;20211;-63
2022/04/30 01:04:37;;;;;;;24.33;15.07;;;10.20;1.00;;;10.24;58.70;101856.84;4955262;28;20211;-65
2022/04/30 01:07:10;;;;;;;40.00;27.55;;;10.20;1.00;;;10.15;59.10;101860.59;4956453;29;20251;-64
2022/04/30 01:09:43;;;;;;;35.42;23.13;;;10.20;1.00;;;10.13;59.06;101847.22;4955756;29;20641;-64
2022/04/30 01:12:13;;;;;;;11.30;9.10;;;10.20;1.00;;;10.06;59.33;101856.25;4955257;28;20327;-63
2022/04/30 01:14:43;;;;;;;34.28;20.63;;;10.20;13.50;;;10.01;59.47;101849.50;4955477;28;20196;-64
2022/04/30 01:17:13;;;;;;;19.10;13.30;;;10.10;12.90;;;9.90;59.91;101852.56;4955498;29;20172;-63
2022/04/30 01:19:43;;;;;;;23.42;16.10;;;10.00;1.00;;;9.76;60.52;101845.19;4955555;29;20180;-64
2022/04/30 01:22:25;;;;;;;17.33;12.88;;;9.90;1.00;;;9.70;60.71;101842.34;4955658;28;20755;-64
2022/04/30 01:24:57;;;;;;;10.70;8.52;;;9.80;1.00;;;9.67;60.81;101840.84;4955537;29;20177;-64
2022/04/30 01:27:28;;;;;;;12.43;7.47;;;9.80;6.10;;;9.69;60.71;101843.34;4955832;29;20185;-64
2022/04/30 01:29:59;;;;;;;14.10;8.23;;;9.80;1.00;;;9.83;60.50;101838.06;4955452;28;20190;-63
2022/04/30 01:38:20;;;;;;;21.33;12.52;;;9.80;1.00;;;9.70;60.63;101840.47;4914822;29;20777;-64
2022/04/30 01:40:50;;;;;;;19.08;12.60;;;9.80;1.00;;;9.75;60.00;101842.66;4915342;29;20204;-64
2022/04/30 01:43:20;;;;;;;11.13;7.35;;;9.80;1.00;;;9.79;59.79;101839.44;4934359;28;20259;-64
2022/04/30 01:45:49;;;;;;;11.65;6.85;;;9.80;22.20;;;9.89;59.56;101826.56;4955068;28;20271;-64
2022/04/30 01:48:18;;;;;;;6.20;4.40;;;9.90;1.00;;;9.87;59.37;101827.75;4955328;29;20747;-64
2022/04/30 01:50:47;;;;;;;8.45;5.60;;;9.90;1.00;;;9.87;59.51;101831.31;4955157;29;20199;-65
2022/04/30 01:53:15;;;;;;;7.32;5.90;;;9.90;1.00;;;9.81;59.29;101840.09;4955054;28;20254;-64
2022/04/30 01:55:44;;;;;;;6.18;5.22;;;9.80;14.70;;;9.70;59.77;101836.94;4955082;29;20177;-65
2022/04/30 01:58:26;;;;;;;6.85;5.13;;;9.80;1.00;;;9.62;59.54;101837.81;4953616;29;20192;-64
2022/04/30 02:00:55;;;;;;;7.75;4.75;;;9.70;1.90;;;9.55;59.94;101834.94;4955048;28;20272;-64
2022/04/30 02:03:24;;;;;;;5.90;5.15;;;9.60;1.00;;;9.55;60.24;101836.78;4954830;28;20691;-64
2022/04/30 02:05:53;;;;;;;7.82;5.25;;;9.60;1.00;;;9.65;59.78;101832.03;4955033;28;20207;-63
2022/04/30 02:08:26;;;;;;;7.60;4.93;;;9.60;22.50;;;9.58;60.26;101829.19;4954832;28;20653;-64
2022/04/30 02:10:55;;;;;;;5.95;4.55;;;9.60;12.90;;;9.49;60.17;101821.25;4969667;28;20196;-65
2022/04/30 02:13:30;;;;;;;6.00;4.45;;;9.60;21.10;;;9.62;59.96;101824.28;4954476;28;20340;-65
2022/04/30 02:16:00;;;;;;;7.40;5.03;;;9.60;1.00;;;9.53;60.19;101833.44;4954022;28;20183;-64
2022/04/30 02:18:31;;;;;;;29.08;6.00;;;9.60;1.00;;;9.46;60.60;101827.03;4954615;28;20201;-65
2022/04/30 02:21:00;;;;;;;6.88;4.30;;;9.60;1.00;;;9.50;60.81;101825.66;4954511;29;20176;-65
2022/04/30 02:23:30;;;;;;;8.40;5.55;;;9.50;1.00;;;9.33;61.15;101826.72;4954355;28;20216;-64
2022/04/30 02:26:04;;;;;;;5.32;4.30;;;9.40;23.60;;;9.18;61.55;101823.88;4954672;28;20200;-64
2022/04/30 02:28:34;;;;;;;9.43;6.03;;;9.30;2.90;;;9.02;62.21;101819.31;4954560;28;20208;-65
2022/04/30 02:31:03;;;;;;;5.65;4.85;;;9.20;6.80;;;9.07;61.67;101822.34;4955185;28;20242;-64
2022/04/30 02:33:32;;;;;;;10.98;5.30;;;9.20;16.90;;;8.99;62.07;101819.66;4954273;28;20215;-64
2022/04/30 02:36:01;;;;;;;8.05;5.38;;;9.10;15.50;;;9.00;61.97;101815.97;4954598;28;20169;-63
2022/04/30 02:38:29;;;;;;;4.93;4.53;;;9.10;1.00;;;8.83;62.40;101811.56;4954552;28;20188;-64
2022/04/30 02:40:58;;;;;;;6.55;4.63;;;9.00;12.90;;;8.73;62.67;101802.78;4954383;28;20286;-64
2022/04/30 02:43:28;;;;;;;6.30;3.55;;;8.90;1.00;;;8.64;62.98;101807.34;4954170;28;20712;-64
2022/04/30 02:45:58;;;;;;;6.00;5.07;;;8.80;1.00;;;8.58;63.42;101799.91;4954229;29;20259;-64
2022/04/30 02:48:27;;;;;;;5.63;4.32;;;8.70;6.20;;;8.56;62.95;101806.50;4954496;28;20658;-64
2022/04/30 02:50:59;;;;;;;5.05;4.40;;;8.70;10.30;;;8.49;63.50;101795.53;4954607;29;20173;-64
2022/04/30 02:53:27;;;;;;;8.43;5.93;;;8.60;1.00;;;8.58;63.38;101790.97;4954787;28;20792;-64
2022/04/30 02:55:59;;;;;;;4.55;4.15;;;8.60;1.00;;;8.71;62.54;101783.25;4954692;29;20180;-65
2022/04/30 03:01:14;;;;;;;6.90;5.00;;;8.90;1.00;;;8.80;62.06;101793.03;4954428;28;20181;-64
2022/04/30 03:04:09;;;;;;;5.35;4.75;;;8.90;1.00;;;8.82;61.82;101787.44;4956828;28;20255;-63
2022/04/30 03:06:38;;;;;;;4.88;3.90;;;8.90;1.00;;;8.76;62.01;101786.28;4954949;28;20208;-64
2022/04/30 03:09:07;;;;;;;5.07;4.43;;;8.90;1.00;;;8.73;61.99;101783.91;4955234;28;20195;-63
2022/04/30 03:11:35;;;;;;;7.75;5.13;;;8.80;1.00;;;8.68;62.34;101783.56;4955356;28;20275;-64
2022/04/30 03:14:04;;;;;;;5.60;4.28;;;8.80;1.00;;;8.67;62.43;101776.47;4956104;29;20176;-65
2022/04/30 03:22:12;;;;;;;5.35;4.32;;;8.70;1.00;;;8.51;62.87;101771.09;4956729;28;20655;-64
2022/04/30 03:24:41;;;;;;;5.95;4.57;;;;;;;8.57;62.35;101767.69;4956419;28;20235;-64
2022/04/30 03:27:11;;;;;;;4.90;3.78;;;8.70;1.00;;;8.64;62.48;101774.13;4955873;28;20208;-65
2022/04/30 03:29:40;;;;;;;4.53;3.83;;;8.70;1.00;;;8.55;62.41;101767.03;4959341;29;20595;-63
2022/04/30 03:32:10;;;;;;;5.15;4.65;;;8.60;2.20;;;8.46;62.87;101770.75;4958972;28;20584;-64
2022/04/30 03:34:39;;;;;;;9.23;4.85;;;8.60;1.00;;;8.40;63.23;101766.84;4959247;28;20187;-65
2022/04/30 03:37:08;;;;;;;5.63;3.55;;;8.50;5.50;;;8.44;62.79;101767.34;4957749;29;20224;-64
2022/04/30 03:39:37;;;;;;;8.95;3.72;;;8.50;19.20;;;8.36;63.36;101772.75;4957811;29;20172;-64
2022/04/30 03:42:06;;;;;;;6.80;4.40;;;8.50;31.60;;;8.56;62.67;101768.72;4957612;28;20200;-64
2022/04/30 03:44:35;;;;;;;10.88;4.13;;;8.60;36.90;;;8.66;62.22;101770.25;4957466;28;20203;-65
2022/04/30 03:47:05;;;;;;;6.43;4.50;;;8.60;36.80;;;8.67;62.08;101774.63;4957547;29;20596;-65
2022/04/30 03:49:35;;;;;;;4.57;3.72;;;8.70;37.70;;;8.65;62.31;101768.56;4957777;29;20192;-64
2022/04/30 03:52:05;;;;;;;6.65;4.43;;;8.70;63.70;;;8.67;62.36;101771.06;4957399;28;20211;-64
2022/04/30 03:54:34;;;;;;;8.35;4.15;;;8.70;33.50;;;8.52;62.77;101765.50;4957354;29;20208;-65
2022/04/30 03:57:02;;;;;;;7.80;5.30;;;8.60;59.60;;;8.57;62.21;101771.22;4957522;28;20261;-64
2022/04/30 03:59:31;;;;;;;7.60;4.25;;;8.60;67.80;;;8.48;62.66;101779.50;4957806;29;20189;-64
2022/04/30 04:02:01;;;;;;;6.20;4.45;;;8.60;88.50;;;8.43;63.09;101773.75;4957241;28;20295;-64
2022/04/30 04:04:30;;;;;;;4.80;3.47;;;8.50;90.70;;;8.50;62.93;101778.31;4957303;28;20228;-64
2022/04/30 04:07:00;;;;;;;7.05;4.43;;;8.50;91.40;;;8.51;63.08;101771.94;4957193;28;20635;-64
2022/04/30 04:09:29;;;;;;;8.23;5.13;;;8.60;96.00;;;8.56;62.79;101768.72;4957198;28;20177;-64
2022/04/30 04:11:58;;;;;;;6.22;4.88;;;8.60;97.30;;;8.62;62.42;101773.44;4957620;28;20295;-64
2022/04/30 04:19:59;;;;;;;7.72;4.47;;;8.80;99.90;;;8.60;62.50;101770.91;4956891;28;20259;-64
2022/04/30 04:22:30;;;;;;;6.82;4.65;;;8.70;99.90;;;8.59;62.73;101774.63;4957107;28;20707;-64
2022/04/30 04:27:44;;;;;;;4.45;4.05;;;8.70;99.90;;;8.64;62.41;101760.63;4956515;28;20196;-63
2022/04/30 04:30:13;;;;;;;6.20;3.85;;;8.70;99.90;;;8.64;62.69;101756.06;4956651;28;20184;-64
2022/04/30 04:32:42;;;;;;;5.95;4.38;;;8.70;99.90;;;8.58;62.97;101761.28;4956259;28;20240;-63
2022/04/30 04:35:13;;;;;;;10.32;5.47;;;8.60;99.90;;;8.52;63.48;101768.19;4956525;29;20180;-63
2022/04/30 04:37:43;;;;;;;8.43;5.28;;;8.60;99.90;;;8.54;62.79;101762.66;4955916;28;20188;-63
2022/04/30 04:40:14;;;;;;;8.65;5.03;;;8.60;99.90;;;8.56;62.59;101768.72;4956464;29;20176;-64
2022/04/30 04:42:45;;;;;;;6.90;4.45;;;8.60;99.90;;;8.40;63.32;101771.41;4956203;28;20251;-64
2022/04/30 04:45:15;;;;;;;10.35;6.60;;;;;;;8.34;63.64;101772.06;4957123;29;20858;-64
2022/04/30 04:47:49;;;;;;;6.07;4.88;;;;;;;8.36;63.80;101764.66;4956517;29;20293;-64
2022/04/30 04:50:19;;;;;;;9.38;5.53;;;8.40;99.90;;;8.38;63.76;101770.72;4956303;28;20227;-64
2022/04/30 04:52:49;;;;;;;5.57;4.00;;;8.40;99.90;;;8.49;63.70;101767.69;4956184;28;20696;-64
2022/04/30 04:55:18;;;;;;;8.13;5.78;;;8.50;99.90;;;8.65;63.09;101776.66;4956325;29;20711;-64
2022/04/30 04:57:47;;;;;;;4.88;4.28;;;8.60;99.90;;;8.55;63.74;101783.22;4956389;29;20176;-65
2022/04/30 05:00:17;;;;;;;7.85;5.35;;;8.60;99.90;;;8.51;63.77;101776.47;4956231;28;20283;-65
2022/04/30 05:02:45;;;;;;;4.63;3.97;;;8.60;99.90;;;8.67;63.35;101777.31;4955997;28;20212;-65
2022/04/30 05:05:14;;;;;;;4.88;4.38;;;8.60;99.90;;;8.65;63.16;101781.22;4956649;29;20223;-65
2022/04/30 05:07:44;;;;;;;6.30;5.00;;;8.60;99.90;;;8.59;63.30;101780.03;4955953;28;20210;-64
2022/04/30 05:10:15;;;;;;;5.32;4.10;;;8.60;99.90;;;8.73;62.77;101787.44;4955919;28;20211;-64
2022/04/30 05:12:46;;;;;;;9.93;5.80;;;8.70;99.90;;;8.89;62.32;101786.59;4956195;28;20222;-64
2022/04/30 05:15:15;;;;;;;5.22;4.35;;;8.80;99.90;;;8.91;62.91;101786.41;4955771;29;20192;-64
2022/04/30 05:17:43;;;;;;;7.88;4.85;;;8.90;99.90;;;8.96;62.65;101790.28;4955929;28;20177;-64
2022/04/30 05:20:12;;;;;;;7.60;4.45;;;;;;;8.87;62.96;101791.31;4955946;28;20620;-64
2022/04/30 05:23:02;;;;;;;6.25;4.68;;;;;;;9.05;62.63;101797.38;4955969;28;20208;-64
2022/04/30 05:25:33;;;;;;;5.95;4.05;;;;;;;9.23;62.31;101799.06;4956372;28;20196;-64
2022/04/30 05:28:02;;;;;;;5.63;5.00;;;;;;;9.19;61.82;101809.38;4955674;28;20196;-64
2022/04/30 05:30:30;;;;;;;5.85;3.95;;;;;;;9.21;61.80;101807.31;4955438;29;20173;-64
2022/04/30 05:32:59;;;;;;;4.95;3.72;;;;;;;9.19;61.87;101805.81;4955758;28;20212;-64
2022/04/30 05:35:29;;;;;;;6.55;3.95;;;8.80;99.90;;;9.27;61.51;101811.19;4955430;28;20409;-65
2022/04/30 05:37:57;;;;;;;4.57;3.80;;;9.20;52.30;;;9.26;61.55;101807.66;4955435;29;20227;-64
2022/04/30 05:40:26;;;;;;;5.40;3.35;;;9.20;1.00;;;9.46;61.21;101808.13;4956091;28;20188;-64
2022/04/30 05:42:56;;;;;;;5.78;4.20;;;9.30;1.00;;;9.71;60.37;101814.28;4955677;28;20222;-64
2022/04/30 05:45:25;;;;;;;4.68;3.22;;;9.40;1.00;;;9.83;60.19;101808.31;4956113;28;20200;-64
2022/04/30 05:47:54;;;;;;;3.60;2.50;;;9.50;1.00;;;9.88;59.36;101803.22;4955862;28;20269;-64
2022/04/30 05:50:23;;;;;;;4.28;2.58;;;9.70;1.00;;;9.76;60.14;101807.34;4955463;28;20696;-64
2022/04/30 05:52:52;;;;;;;3.88;3.03;;;9.60;1.00;;;9.66;60.59;101806.72;4956151;28;20299;-65
2022/04/30 05:55:20;;;;;;;5.45;2.83;;;9.50;1.00;;;9.79;59.74;101816.94;4955824;29;20267;-65
2022/04/30 05:57:49;;;;;;;3.45;2.85;;;9.60;1.00;;;9.82;60.01;101811.22;4960663;28;20183;-64
2022/04/30 06:00:20;;;;;;;4.47;2.78;;;9.60;1.00;;;9.90;59.84;101809.31;4962014;28;20227;-64
2022/04/30 06:02:49;;;;;;;3.60;2.72;;;9.80;1.00;;;10.08;59.61;101816.31;4956479;28;20580;-64
2022/04/30 06:05:19;;;;;;;4.35;2.75;;;9.80;1.00;;;9.99;59.62;101805.56;4956350;28;20180;-64
2022/04/30 06:07:48;;;;;;;3.10;2.25;;;9.80;1.00;;;10.11;59.20;101808.72;4955441;29;20571;-64
2022/04/30 06:10:17;;;;;;;7.97;5.50;;;9.90;1.00;;;10.43;58.76;101805.84;4970139;28;20446;-64
2022/04/30 06:12:46;;;;;;;3.42;2.58;;;10.10;1.00;;;10.85;56.72;101799.09;4955314;28;20223;-64
2022/04/30 06:15:15;;;;;;;4.32;3.28;;;10.30;1.00;;;11.07;56.07;101810.94;4955154;29;20188;-65
2022/04/30 06:17:45;;;;;;;4.10;2.55;;;10.60;1.00;;;11.10;56.22;101819.53;4955438;28;20264;-63
2022/04/30 06:20:14;;;;;;;3.67;3.38;;;10.80;1.00;;;11.23;55.54;101824.34;4954903;28;20200;-65
2022/04/30 06:22:43;;;;;;;2.78;2.42;;;10.80;1.00;;;11.50;54.78;101826.44;4954517;28;20226;-65
2022/04/30 06:25:11;;;;;;;3.08;2.22;;;11.00;1.00;;;11.62;55.15;101824.06;4954904;29;20283;-65
2022/04/30 06:27:40;;;;;;;4.50;3.77;;;11.00;1.00;;;11.68;54.47;101826.91;4954770;28;20188;-63
2022/04/30 06:30:11;;;;;;;4.50;2.60;;;11.20;16.30;;;11.87;54.39;101822.81;4955136;29;20431;-64
2022/04/30 06:32:40;;;;;;;2.67;2.07;;;11.40;1.00;;;12.00;54.01;101822.16;4954684;28;20447;-65
2022/04/30 06:35:10;;;;;;;5.83;2.83;;;11.60;1.00;;;12.17;53.65;101823.63;4955138;28;20830;-64
2022/04/30 06:37:39;;;;;;;3.60;3.30;;;11.70;12.90;;;12.07;53.31;101823.06;4955119;28;20423;-65
2022/04/30 06:40:10;;;;;;;10.43;3.00;;;11.80;22.00;;;11.97;53.63;101817.09;4954786;29;20419;-65
2022/04/30 06:42:40;;;;;;;4.90;4.37;;;11.80;1.00;;;11.53;54.64;101820.63;4955895;28;20828;-64
2022/04/30 06:45:11;;;;;;;3.70;2.57;;;11.60;1.00;;;11.75;54.45;101819.75;4957368;29;20978;-64
2022/04/30 06:47:41;;;;;;;4.10;2.27;;;11.50;1.00;;;12.02;53.64;101820.06;4958155;28;20612;-64
2022/04/30 06:50:12;;;;;;;3.57;2.63;;;11.60;1.00;;;12.18;53.15;101825.31;4959251;28;20379;-64
2022/04/30 06:58:11;;;;;;;4.27;2.57;;;12.00;1.00;;;12.00;53.95;101822.16;4954342;28;20442;-69
2022/04/30 07:03:29;;;;;;;4.40;2.97;;;11.90;1.00;;;12.48;52.52;101820.66;4958804;28;20881;-66
2022/04/30 07:06:04;;;;;;;6.17;2.70;;;12.00;1.00;;;12.62;51.97;101828.75;4959116;29;20534;-65
2022/04/30 07:08:35;;;;;;;4.53;2.60;;;12.20;1.00;;;12.54;51.89;101825.28;4970348;28;20472;-65
2022/04/30 07:11:04;;;;;;;4.07;2.83;;;12.40;1.00;;;12.39;52.54;101817.19;4967610;28;20691;-65
2022/04/30 07:13:33;;;;;;;2.80;2.17;;;12.20;1.00;;;12.82;51.62;101826.22;4974170;28;20450;-65
2022/04/30 07:16:03;;;;;;;3.97;2.57;;;12.40;1.00;;;13.14;50.38;101824.84;4968042;28;20459;-64
2022/04/30 07:18:32;;;;;;;3.17;2.40;;;12.70;1.00;;;13.07;50.28;101823.91;4964243;28;20431;-65
2022/04/30 07:21:02;;;;;;;3.47;3.07;;;12.80;1.00;;;13.01;50.57;101816.56;4958943;28;20423;-64
2022/04/30 07:23:31;;;;;;;3.70;2.50;;;12.60;1.00;;;13.06;50.15;101814.94;4957381;28;20464;-65
2022/04/30 07:26:00;;;;;;;3.20;2.73;;;12.80;1.00;;;13.26;48.94;101825.19;4958139;29;20416;-65
2022/04/30 07:28:30;;;;;;;3.90;3.00;;;12.90;1.00;;;13.36;49.82;101818.31;4961233;29;20502;-65
2022/04/30 07:31:00;;;;;;;3.77;3.03;;;13.00;1.00;;;13.25;50.38;101824.34;4961153;28;20888;-66
2022/04/30 07:33:29;;;;;;;4.40;3.17;;;12.90;1.00;;;13.35;49.82;101833.00;4958472;28;20451;-64
2022/04/30 07:36:04;;;;;;;4.83;3.10;;;13.10;1.00;;;13.30;50.04;101838.16;4958383;28;20424;-65
2022/04/30 07:38:33;;;;;;;6.13;3.83;;;13.10;1.00;;;13.08;49.63;101822.88;4958187;29;20420;-64
2022/04/30 07:41:01;;;;;;;4.07;3.10;;;13.10;1.00;;;13.42;49.42;101831.13;4959056;28;20448;-64
2022/04/30 07:43:30;;;;;;;4.63;2.57;;;13.10;1.00;;;13.35;50.40;101835.69;4958103;28;20506;-64
2022/04/30 07:45:59;;;;;;;5.67;3.40;;;13.20;1.00;;;13.16;51.12;101836.38;4957744;28;20813;-65
2022/04/30 07:48:28;;;;;;;3.30;3.00;;;13.00;1.00;;;13.23;50.98;101842.69;4957678;28;20416;-64
2022/04/30 07:50:58;;;;;;;4.00;3.37;;;13.00;1.00;;;13.43;50.51;101835.53;4957764;28;20979;-64
2022/04/30 07:53:28;;;;;;;4.03;2.60;;;13.10;1.00;;;13.71;48.98;101835.50;4957051;28;20457;-64
2022/04/30 07:55:57;;;;;;;4.20;2.73;;;13.20;1.00;;;13.32;49.23;101841.50;4957121;29;20435;-65
2022/04/30 07:58:26;;;;;;;5.40;2.50;;;13.30;1.00;;;13.76;49.27;101843.91;4957071;28;20423;-65
2022/04/30 08:00:55;;;;;;;4.47;3.40;;;13.40;1.00;;;14.06;49.06;101849.94;4957256;29;20444;-64
2022/04/30 08:03:23;;;;;;;2.90;2.63;;;13.70;1.00;;;14.07;48.58;101840.75;4956680;28;20805;-64
2022/04/30 08:05:52;;;;;;;3.80;3.23;;;13.80;1.00;;;14.05;48.74;101844.69;4957346;28;20916;-64
2022/04/30 08:08:21;;;;;;;6.43;2.40;;;13.90;1.00;;;14.20;48.75;101846.25;4956900;28;20460;-65
2022/04/30 08:10:51;;;;;;;4.53;2.77;;;13.90;1.00;;;14.09;48.38;101844.09;4956904;29;20474;-64
2022/04/30 08:13:20;;;;;;;2.97;2.63;;;13.80;1.00;;;14.26;47.80;101853.59;4955818;28;20452;-66
2022/04/30 08:15:48;;;;;;;3.37;3.07;;;14.00;1.00;;;14.21;47.38;101852.53;4957147;29;20955;-65
2022/04/30 08:18:18;;;;;;;3.93;3.23;;;14.10;1.00;;;14.07;47.29;101850.78;4957026;29;20795;-65
2022/04/30 08:20:47;;;;;;;7.10;2.90;;;14.10;1.00;;;14.07;47.34;101851.63;4956977;28;20483;-66
2022/04/30 08:23:16;;;;;;;4.20;2.80;;;14.00;1.00;;;14.29;47.42;101850.47;4956855;28;20550;-64
2022/04/30 08:25:45;;;;;;;2.70;2.50;;;14.10;1.00;;;14.71;46.54;101843.94;4956949;28;20411;-65
2022/04/30 08:28:15;;;;;;;3.57;2.67;;;14.20;1.00;;;14.47;47.31;101846.38;4956712;28;20420;-65
2022/04/30 08:30:44;;;;;;;4.53;3.83;;;14.30;1.00;;;15.08;46.33;101852.56;4956545;29;20475;-65
2022/04/30 08:33:13;;;;;;;4.07;2.40;;;14.60;1.00;;;15.10;45.81;101847.75;4956396;28;20558;-64
2022/04/30 08:35:41;;;;;;;2.50;2.30;;;14.70;1.00;;;15.14;45.10;101838.97;4956946;29;20440;-65
2022/04/30 08:38:10;;;;;;;2.70;2.30;;;14.80;1.00;;;15.04;45.62;101846.72;4956741;29;20537;-64
2022/04/30 08:40:44;;;;;;;4.97;2.87;;;14.80;1.00;;;15.52;44.29;101843.78;4956822;29;20424;-64
2022/04/30 08:43:16;;;;;;;6.20;2.73;;;15.00;1.00;;;15.80;44.02;101838.91;4956529;28;20547;-65
2022/04/30 08:45:46;;;;;;;3.07;2.80;;;15.30;1.00;;;15.62;44.17;101830.56;4956415;29;20475;-64
2022/04/30 08:48:18;;;;;;;4.80;3.40;;;15.30;1.00;;;15.47;44.88;101829.91;4956400;29;20470;-66
2022/04/30 08:50:48;;;;;;;4.57;2.50;;;15.10;1.00;;;15.61;44.16;101826.13;4956688;28;21062;-66
2022/04/30 08:53:17;;;;;;;3.50;2.40;;;15.10;1.00;;;15.68;43.75;101835.16;4955493;28;20865;-65
2022/04/30 08:59:06;;;;;;;3.70;2.60;;;15.50;1.00;;;15.41;44.83;101828.03;5171690;23;20493;-81
2022/04/30 09:01:46;;;;;;;4.23;3.20;;;15.30;1.00;;;15.49;44.92;101831.38;4926138;29;20434;-80
2022/04/30 09:04:19;;;;;;;2.83;2.50;;;15.30;1.00;;;15.53;45.02;101831.81;4925145;29;20445;-80
2022/04/30 09:06:55;;;;;;;6.57;2.87;;;15.20;1.00;;;15.93;44.53;101827.94;4911300;29;20505;-79
2022/04/30 09:09:28;;;;;;;5.13;3.80;;;15.30;1.00;;;15.70;43.99;101833.03;4906173;29;20448;-81
2022/04/30 09:12:07;;;;;;;5.40;2.73;;;15.50;1.00;;;15.44;44.60;101830.34;4905862;29;20408;-81
2022/04/30 09:14:41;;;;;;;4.50;2.90;;;15.40;1.00;;;15.49;44.53;101825.09;4904692;29;20447;-79
2022/04/30 09:17:13;;;;;;;2.97;2.47;;;15.20;1.00;;;15.72;43.67;101822.75;4905865;29;20545;-80
2022/04/30 09:19:51;;;;;;;2.60;2.37;;;15.20;1.00;;;15.71;44.52;101826.53;4905622;29;20437;-81
2022/04/30 09:22:30;;;;;;;4.80;2.73;;;15.30;1.00;;;15.59;45.09;101831.81;4905201;29;20430;-80
2022/04/30 09:25:00;;;;;;;7.00;3.57;;;15.40;1.00;;;15.53;45.04;101837.28;4905907;29;20431;-81
2022/04/30 09:27:51;;;;;;;4.90;2.43;;;15.30;1.00;;;15.93;44.24;101833.41;4904862;29;21036;-80
2022/04/30 09:30:26;;;;;;;3.03;2.57;;;15.50;1.00;;;15.73;44.42;101823.59;4904910;29;20465;-80
2022/04/30 09:33:03;;;;;;;4.13;3.10;;;15.50;1.00;;;15.71;44.50;101829.28;4904402;29;20443;-80
2022/04/30 09:38:21;;;;;;;5.10;2.97;;;15.60;1.00;;;15.97;44.15;101815.56;4902475;29;20911;-81
2022/04/30 09:40:54;;;;;;;6.50;3.63;;;15.70;1.00;;;16.32;43.75;101821.47;4902727;29;20474;-79
2022/04/30 09:43:30;;;;;;;4.03;3.13;;;15.90;1.00;;;16.45;43.81;101823.31;4906138;29;20529;-80
2022/04/30 09:46:08;;;;;;;3.20;2.90;;;16.00;1.00;;;16.45;44.09;101815.13;4902976;29;20485;-80
2022/04/30 09:54:11;;;;;;;3.70;3.10;;;16.20;1.00;;;16.27;44.11;101807.63;4904248;29;20422;-81
2022/04/30 09:56:44;;;;;;;5.03;4.30;;;16.00;1.00;;;16.47;43.61;101804.81;4904410;29;20488;-80
2022/04/30 09:59:16;;;;;;;29.10;26.20;;;16.10;1.00;;;16.50;43.06;101807.97;4909470;29;20473;-81
2022/04/30 10:01:48;;;;;;;6.00;4.73;;;16.20;1.00;;;16.68;42.49;101804.50;4923282;29;20425;-81
2022/04/30 10:04:19;;;;;;;5.23;4.13;;;16.30;1.00;;;16.94;42.65;101798.81;4931956;29;20429;-79
2022/04/30 10:06:51;;;;;;;15.53;3.73;;;16.50;1.00;;;16.89;42.91;101806.03;4920753;29;20442;-82
2022/04/30 10:09:23;;;;;;;6.93;6.23;;;16.60;1.00;;;17.14;42.38;101798.66;4902328;29;20481;-81
2022/04/30 10:12:11;;;;;;;5.00;4.60;;;16.80;1.00;;;17.12;41.74;101799.97;4906029;29;20764;-81
2022/04/30 10:15:16;;;;;;;4.63;3.47;;;16.90;1.00;;;17.57;41.08;101797.88;4919107;29;20490;-80
2022/04/30 10:17:48;;;;;;;3.57;2.77;;;17.10;1.00;;;17.96;40.68;101791.13;4917630;29;20457;-81
2022/04/30 10:20:29;;;;;;;11.73;10.70;;;17.40;1.00;;;17.43;40.37;101797.13;4921944;29;20409;-81
2022/04/30 10:23:00;;;;;;;6.20;3.57;;;17.30;1.00;;;17.99;39.53;101796.13;4920042;29;20423;-81
2022/04/30 10:25:33;;;;;;;11.53;10.37;;;17.50;1.00;;;18.06;38.96;101789.50;4922259;29;20428;-82
2022/04/30 10:28:18;;;;;;;7.53;4.17;;;17.70;1.00;;;18.01;38.74;101780.31;4921310;29;20444;-79
2022/04/30 10:31:03;;;;;;;7.13;6.20;;;17.80;1.00;;;17.89;39.99;101782.16;4922023;29;20477;-81
2022/04/30 10:33:51;;;;;;;7.50;3.27;;;17.70;1.00;;;18.34;39.01;101785.38;4922110;29;20410;-83
2022/04/30 10:36:23;;;;;;;6.23;3.80;;;17.90;1.00;;;18.37;39.16;101777.50;4923757;29;20412;-82
2022/04/30 10:38:59;;;;;;;3.10;2.80;;;18.10;1.00;;;18.02;40.24;101779.25;4923106;29;20516;-80
2022/04/30 10:41:28;;;;;;;5.30;3.60;;;18.00;1.00;;;17.85;40.51;101775.47;4921231;29;20388;-80
2022/04/30 10:44:06;;;;;;;6.43;4.10;;;17.80;1.00;;;17.83;40.75;101770.22;4922403;29;20789;-81
2022/04/30 10:46:40;;;;;;;5.50;4.40;;;17.70;1.00;;;17.91;40.90;101771.81;4920528;29;20436;-80
2022/04/30 10:49:10;;;;;;;3.70;3.00;;;17.70;1.00;;;18.15;40.28;101770.88;4921009;29;20424;-81
2022/04/30 10:51:43;;;;;;;4.07;2.63;;;17.70;1.00;;;18.22;40.51;101766.13;4920970;29;20440;-80
2022/04/30 10:54:16;;;;;;;3.20;2.83;;;17.70;1.00;;;18.40;40.17;101762.50;4921441;29;20894;-82
2022/04/30 10:57:00;;;;;;;6.50;3.67;;;17.90;1.00;;;18.48;39.34;101754.78;4920974;29;20453;-80
2022/04/30 10:59:30;;;;;;;3.70;3.13;;;18.00;1.00;;;18.61;37.87;101756.53;4920115;29;20461;-78
2022/04/30 11:02:01;;;;;;;5.13;3.10;;;18.20;1.00;;;18.77;38.16;101755.00;4922153;29;20391;-79
2022/04/30 11:04:32;;;;;;;4.60;3.73;;;18.30;1.00;;;18.61;38.51;101756.53;4919470;29;20491;-79
2022/04/30 11:07:03;;;;;;;5.07;2.87;;;18.40;1.00;;;18.74;38.00;101755.47;4919736;29;20412;-81
2022/04/30 11:09:33;;;;;;;3.03;2.73;;;18.50;1.00;;;18.47;38.10;101755.88;4921402;29;20423;-81
2022/04/30 11:12:02;;;;;;;4.47;3.37;;;18.30;1.00;;;19.03;37.54;101749.91;4921403;29;20770;-79
2022/04/30 11:14:31;;;;;;;6.13;3.23;;;18.50;1.00;;;19.19;36.98;101748.38;4920673;29;20956;-80
2022/04/30 11:17:00;;;;;;;3.50;2.53;;;18.60;1.00;;;19.31;36.73;101746.47;4920861;29;20393;-80
2022/04/30 11:19:31;;;;;;;4.60;2.80;;;18.60;1.00;;;19.54;36.71;101734.66;4919549;29;20778;-80
2022/04/30 11:22:01;;;;;;;6.20;3.10;;;19.00;1.00;;;19.41;36.29;101730.22;4920858;29;20392;-80